To NAV CANADA Home Page Login to a new session Search on AWWS site Feedback and Comments Disclaimer Vers la page française équivalente Tips FAQ What's new on the site To the Forecasts and Observations / NOTAM section To "File a Flight Plan" website Publications and other links Update of the User's profile FIC Telephone Numbers My Weather Data Folder Route Weather Data Regional Weather Data Local Weather Data To the Forecasts and Observations / NOTAM section
Request Generated 09/25/2016 at 13:55:45 UTC . Weather information available at that time is displayed.

METAR/TAF

ABBOTSFORD/BC    

METAR CYXX 251300Z 03006KT 15SM OVC050 13/10 A3039 RMK SC8 SLP294=
METAR CYXX 251200Z CCA 03007KT 15SM OVC052 13/11 A3038 RMK SC8
SLP291=
METAR CYXX 251200Z 03007KT 15SM OVC052 13/11 A3038 RMK SC8 SLP291=
METAR CYXX 251100Z 02004KT 15SM OVC062 13/11 A3038 RMK SC8 SLP291=

TAF CYXX 251138Z 2512/2612 02005KT P6SM SCT030 OVC060 TEMPO 2512/2518
P6SM -RA OVC030
BECMG 2518/2520 03006KT
FM260300 03006KT P6SM FEW030 SCT060
BECMG 2604/2606 VRB03KT
RMK NXT FCST BY 251800Z=
Your time UTC time
Weather data provided by Environment Canada and NAV CANADA